Terminal Aerodrome Forecast
Issued by NWS

Home | Current Version | Previous Version | Text Only | Print | Product List | Glossary On
Versions: 1 2 3 4 5 6 7 8 9 10 11 12
000
FTUS43 KUNR 050520
TAFGCC
TAF
KGCC 050520Z 0506/0606 14008KT P6SM SCT100
     FM051300 34012KT P6SM SCT050 BKN120
     FM051900 36018G28KT P6SM -SHRA BKN020 OVC050=

USA.gov is the U.S. government's official web portal to all federal, state and local government web resources and services.